< < Back
Terminal Aerodrome Forecast


Current Version              Previous Versions:   1  2  3  4  5  6  7  8  9  

Terminal Aerodrome Forecast

965
FTUS42 KFFC 312338
TAFAHN
TAF
KAHN 312338Z 0100/0124 06005KT P6SM FEW050 SCT120
     FM010300 00000KT P6SM SKC
     FM011400 21003KT P6SM FEW030 SCT120
     FM011700 22006KT P6SM SCT040=

Latest METAR

204
SAUS70 KWBC 010200 RRH
MTRAHN
METAR KAHN 010151Z AUTO 00000KT 10SM FEW080 SCT100 25/23 A2993 RMK AO2
SLP128 T02500228


USA.gov is the U.S. government's official web portal to all federal, state and local government web resources and services.